Startpagina
METAR-TAF:

METAR-TAF

Vliegvelden :

Luchthaven Larnaca

Larnaca, Cyprus

breedte: 34-53N, lengte: 033-38E, hoogte: 2 m

Actueel weer

Dit bericht is 16 minuten geleden gemaakt, om 21:00 UTC
Wind 5 kt uit het zuidzuidwesten
Temperatuur 26°C
Vochtigheid 100%
Druk 1005 hPa
Zicht 10 km of meer
geen wolken onder 1500 m en geen cumulonimbus

METAR: LCLK 212100Z 21005KT CAVOK 26/26 Q1005 NOSIG

Tijdstip: 00:16 (21:16 UTC)

Verwachting

Dit bericht is 3 uur en het 46 minuten geleden gemaakt, om 17:30 UTC
Verwachting geldig van 21 om 18 UTC tot 22 om 18 UTC
Wind 10 kt uit het zuidwesten
Zicht 10 km of meer
geen wolken onder 1500 m en geen cumulonimbus
Wijzigt naar
van 21 om 19 UTC tot 21 om 22 UTC
Wind 3 kt uit variabele richting
Wijzigt naar
van 22 om 08 UTC tot 22 om 12 UTC
Wind 17 kt uit het zuidzuidwesten
Wijzigt naar
van 22 om 16 UTC tot 22 om 18 UTC
Wind 6 kt uit het zuidwesten

TAF: LCLK 211730Z 2118/2218 23010KT CAVOK BECMG 2119/2122 VRB03KT BECMG 2208/2212 21017KT BECMG 2216/2218 23006KT

Waarnemingen en weersverwachtingen van meer dan 4000 vliegvelden (METAR en TAF).

De beschikbare stations zijn de gele en rode punten op de kaart.

Ga met uw muis naar het station om de naam te zien.

Klik dan om waarnemingen en weersverwachtingen te zien.

kaart wijzigen: klik op de groene knoppen met een zwart kruis om in te zoomen, op de groene knop met een streepje om uit te zoomen of op de groene pijlen voor aangrenzende kaarten.


METAR-TAF: